createdAt,value
2018-12-12T00:01:55.173Z,12.33
2018-12-12T00:04:24.285Z,6.77
2018-12-12T00:06:53.840Z,8.20
2018-12-12T00:09:22.929Z,8.93
2018-12-12T00:11:52.157Z,7.57
2018-12-12T00:14:21.256Z,4.57
2018-12-12T00:16:50.336Z,6.37
2018-12-12T00:19:19.412Z,8.17
2018-12-12T00:21:48.499Z,9.87
2018-12-12T00:24:17.652Z,8.10
2018-12-12T00:26:46.753Z,9.43
2018-12-12T00:29:15.832Z,12.33
2018-12-12T00:31:44.974Z,14.57
2018-12-12T00:34:14.065Z,10.20
2018-12-12T00:36:43.199Z,15.10
2018-12-12T00:39:12.288Z,10.87
2018-12-12T00:41:41.424Z,8.80
2018-12-12T00:44:10.509Z,8.30
2018-12-12T00:46:39.756Z,11.10
2018-12-12T00:49:08.893Z,10.40
2018-12-12T00:51:38.026Z,14.90
2018-12-12T00:54:07.077Z,6.90
2018-12-12T00:56:36.285Z,11.80
2018-12-12T00:59:05.463Z,12.80
2018-12-12T01:01:34.539Z,14.90
2018-12-12T01:04:03.621Z,7.70
2018-12-12T01:06:32.725Z,6.27
2018-12-12T01:09:01.813Z,5.80
2018-12-12T01:12:36.888Z,7.73
2018-12-12T01:15:05.987Z,7.40
2018-12-12T01:17:35.064Z,9.20
2018-12-12T01:20:04.201Z,13.13
2018-12-12T01:22:33.275Z,15.50
2018-12-12T01:25:02.371Z,7.77
2018-12-12T01:27:31.455Z,17.70
2018-12-12T01:30:00.519Z,10.77
2018-12-12T01:32:29.609Z,12.13
2018-12-12T01:34:58.760Z,11.23
2018-12-12T01:37:28.046Z,10.50
2018-12-12T01:39:57.185Z,17.43
2018-12-12T01:42:26.270Z,15.73
2018-12-12T01:44:55.357Z,13.13
2018-12-12T01:47:24.445Z,12.33
2018-12-12T01:49:53.551Z,16.57
2018-12-12T01:52:22.630Z,9.97
2018-12-12T01:54:51.747Z,16.70
2018-12-12T01:57:20.844Z,10.10
2018-12-12T01:59:49.966Z,15.87
2018-12-12T02:02:19.054Z,12.50
2018-12-12T02:04:48.161Z,15.10
2018-12-12T02:07:17.290Z,11.63
2018-12-12T02:09:46.353Z,42.30
2018-12-12T02:12:15.460Z,18.47
2018-12-12T02:14:44.546Z,12.97
2018-12-12T02:17:13.800Z,12.43
2018-12-12T02:19:42.948Z,11.13
2018-12-12T02:22:12.044Z,16.43
2018-12-12T02:24:41.149Z,10.67
2018-12-12T02:27:10.244Z,13.60
2018-12-12T02:29:39.340Z,13.60
2018-12-12T02:32:08.447Z,11.20
2018-12-12T02:34:37.549Z,13.73
2018-12-12T02:37:06.676Z,15.67
2018-12-12T02:39:35.755Z,16.10
2018-12-12T02:42:04.953Z,11.73
2018-12-12T02:44:34.057Z,16.17
2018-12-12T02:47:03.176Z,16.83
2018-12-12T02:49:32.469Z,17.20
2018-12-12T02:52:01.633Z,12.73
2018-12-12T02:54:30.715Z,14.73
2018-12-12T02:56:59.813Z,13.80
2018-12-12T02:59:28.962Z,19.23
2018-12-12T03:01:58.056Z,18.73
2018-12-12T03:04:27.174Z,18.90
2018-12-12T03:06:56.321Z,22.43
2018-12-12T03:09:25.443Z,23.60
2018-12-12T03:11:54.531Z,13.97
2018-12-12T03:14:23.617Z,20.27
2018-12-12T03:16:52.737Z,23.40
2018-12-12T03:19:21.821Z,18.53
2018-12-12T03:21:50.957Z,23.97
2018-12-12T03:24:20.066Z,16.40
2018-12-12T03:26:49.173Z,23.07
2018-12-12T03:29:18.258Z,22.20
2018-12-12T03:31:47.370Z,27.10
2018-12-12T03:34:16.464Z,16.40
2018-12-12T03:36:45.561Z,19.13
2018-12-12T03:39:14.879Z,22.33
2018-12-12T03:41:44.005Z,20.27
2018-12-12T03:44:13.134Z,19.30
2018-12-12T03:46:42.256Z,28.40
2018-12-12T03:49:11.371Z,24.17
2018-12-12T03:51:40.453Z,22.30
2018-12-12T03:54:09.515Z,19.23
2018-12-12T03:56:38.627Z,18.10
2018-12-12T03:59:07.749Z,20.53
2018-12-12T04:01:36.831Z,18.30
2018-12-12T04:04:05.950Z,19.93
2018-12-12T04:06:35.070Z,15.47
2018-12-12T04:09:04.592Z,19.57
2018-12-12T04:11:33.701Z,17.00
2018-12-12T04:14:02.807Z,19.33
2018-12-12T04:16:31.941Z,18.53
2018-12-12T04:19:01.205Z,24.17
2018-12-12T04:21:30.347Z,22.50
2018-12-12T04:23:59.446Z,25.63
2018-12-12T04:26:28.544Z,21.23
2018-12-12T04:28:57.646Z,22.03
2018-12-12T04:31:26.768Z,15.90
2018-12-12T04:33:55.873Z,19.50
2018-12-12T04:36:24.987Z,16.50
2018-12-12T04:38:54.122Z,18.73
2018-12-12T04:41:23.233Z,22.07
2018-12-12T04:43:52.334Z,16.30
2018-12-12T04:46:21.463Z,22.73
2018-12-12T04:48:50.560Z,21.80
2018-12-12T04:51:19.664Z,17.03
2018-12-12T04:53:48.767Z,16.80
2018-12-12T04:56:17.878Z,21.10
2018-12-12T04:58:46.984Z,18.23
2018-12-12T05:01:16.105Z,17.73
2018-12-12T05:03:45.231Z,23.87
2018-12-12T05:06:14.350Z,28.43
2018-12-12T05:08:43.443Z,14.03
2018-12-12T05:11:12.560Z,23.60
2018-12-12T05:13:41.644Z,16.30
2018-12-12T05:16:10.758Z,19.23
2018-12-12T05:18:39.882Z,21.23
2018-12-12T05:21:08.991Z,19.83
2018-12-12T05:23:38.085Z,19.20
2018-12-12T05:26:07.192Z,18.10
2018-12-12T05:28:36.305Z,26.13
2018-12-12T05:31:05.430Z,19.80
2018-12-12T05:33:34.553Z,20.33
2018-12-12T05:36:03.645Z,34.30
2018-12-12T05:38:38.871Z,25.80
2018-12-12T05:41:07.997Z,22.03
2018-12-12T05:43:37.109Z,16.60
2018-12-12T05:46:06.245Z,23.37
2018-12-12T05:48:35.368Z,30.30
2018-12-12T05:51:04.507Z,21.80
2018-12-12T05:53:33.612Z,29.33
2018-12-12T05:56:02.777Z,15.00
2018-12-12T05:58:31.975Z,23.20
2018-12-12T06:01:01.048Z,23.40
2018-12-12T06:03:30.169Z,25.63
2018-12-12T06:05:59.310Z,24.40
2018-12-12T06:08:28.434Z,29.70
2018-12-12T06:10:57.542Z,24.93
2018-12-12T06:13:26.689Z,19.00
2018-12-12T06:19:27.699Z,21.30
2018-12-12T06:21:56.808Z,19.37
2018-12-12T06:24:25.893Z,23.60
2018-12-12T06:26:55.005Z,21.63
2018-12-12T06:29:24.099Z,20.93
2018-12-12T06:31:53.267Z,15.30
2018-12-12T06:34:22.401Z,22.20
2018-12-12T06:36:51.512Z,24.43
2018-12-12T06:39:20.645Z,19.40
2018-12-12T06:41:49.752Z,23.40
2018-12-12T06:44:18.868Z,21.53
2018-12-12T06:46:47.987Z,20.83
2018-12-12T06:49:17.091Z,27.33
2018-12-12T06:51:46.181Z,22.90
2018-12-12T06:54:15.304Z,18.87
2018-12-12T06:56:44.397Z,20.40
2018-12-12T06:59:13.563Z,22.33
2018-12-12T07:01:42.716Z,21.83
2018-12-12T07:04:11.833Z,17.53
2018-12-12T07:06:41.080Z,18.20
2018-12-12T07:09:10.607Z,20.90
2018-12-12T07:11:39.780Z,27.27
2018-12-12T07:14:08.909Z,22.70
2018-12-12T07:16:38.028Z,25.30
2018-12-12T07:19:07.144Z,22.67
2018-12-12T07:21:36.261Z,47.83
2018-12-12T07:24:05.374Z,26.10
2018-12-12T07:26:34.456Z,26.00
2018-12-12T07:29:03.596Z,29.80
2018-12-12T07:31:32.732Z,23.10
2018-12-12T07:34:02.155Z,24.83
2018-12-12T07:36:31.275Z,22.87
2018-12-12T07:39:00.381Z,18.37
2018-12-12T07:41:29.777Z,19.47
2018-12-12T07:43:58.905Z,18.23
2018-12-12T07:46:28.116Z,24.67
2018-12-12T07:48:57.310Z,24.20
2018-12-12T07:51:26.449Z,25.33
2018-12-12T07:53:55.586Z,23.10
2018-12-12T07:56:24.689Z,26.53
2018-12-12T07:58:53.793Z,23.90
2018-12-12T08:01:22.972Z,26.93
2018-12-12T08:03:52.145Z,24.00
2018-12-12T08:06:21.322Z,23.47
2018-12-12T08:08:50.513Z,25.30
2018-12-12T08:11:19.656Z,28.87
2018-12-12T08:13:48.776Z,30.97
2018-12-12T08:16:17.903Z,29.13
2018-12-12T08:18:47.271Z,29.43
2018-12-12T08:21:16.372Z,32.53
2018-12-12T08:23:45.480Z,32.97
2018-12-12T08:26:14.607Z,31.97
2018-12-12T08:28:43.765Z,37.10
2018-12-12T08:31:12.908Z,91.13
2018-12-12T08:33:42.030Z,46.93
2018-12-12T08:36:11.485Z,44.37
2018-12-12T08:38:40.612Z,37.80
2018-12-12T08:41:10.307Z,47.83
2018-12-12T08:43:39.473Z,62.73
2018-12-12T08:46:08.592Z,52.23
2018-12-12T08:48:37.956Z,60.77
2018-12-12T08:51:07.082Z,46.43
2018-12-12T08:53:36.157Z,50.80
2018-12-12T08:56:05.285Z,47.13
2018-12-12T08:58:34.440Z,47.10
2018-12-12T09:01:03.609Z,52.90
2018-12-12T09:03:32.746Z,41.97
2018-12-12T09:06:01.860Z,42.20
2018-12-12T09:08:30.950Z,45.80
2018-12-12T09:11:00.094Z,51.27
2018-12-12T09:13:29.214Z,63.23
2018-12-12T09:15:58.358Z,61.17
2018-12-12T09:18:27.469Z,48.77
2018-12-12T09:20:56.590Z,40.00
2018-12-12T09:23:25.684Z,39.60
2018-12-12T09:25:54.789Z,35.03
2018-12-12T09:28:23.877Z,38.43
2018-12-12T09:30:53.025Z,35.13
2018-12-12T09:33:24.784Z,28.60
2018-12-12T09:35:53.349Z,22.40
2018-12-12T09:38:22.430Z,18.53
2018-12-12T09:40:51.721Z,25.43
2018-12-12T09:43:20.829Z,24.13
2018-12-12T09:45:49.957Z,24.40
2018-12-12T09:48:21.164Z,28.60
2018-12-12T09:50:50.380Z,25.13
2018-12-12T09:53:19.482Z,25.53
2018-12-12T09:55:48.596Z,20.33
2018-12-12T09:58:17.705Z,29.13
2018-12-12T10:00:47.765Z,20.43
2018-12-12T10:03:16.886Z,35.10
2018-12-12T10:05:46.026Z,21.97
2018-12-12T10:08:15.133Z,22.47
2018-12-12T10:10:44.249Z,21.33
2018-12-12T10:13:13.380Z,24.60
2018-12-12T10:15:42.513Z,21.13
2018-12-12T10:18:11.611Z,22.40
2018-12-12T10:20:40.736Z,32.20
2018-12-12T10:23:09.917Z,19.50
2018-12-12T10:25:39.095Z,25.90
2018-12-12T10:28:08.179Z,27.90
2018-12-12T10:30:37.347Z,23.30
2018-12-12T10:33:06.460Z,18.73
2018-12-12T10:35:35.580Z,17.00
2018-12-12T10:38:04.703Z,25.13
2018-12-12T10:40:33.814Z,22.37
2018-12-12T10:43:02.901Z,25.40
2018-12-12T10:45:32.017Z,22.97
2018-12-12T10:48:01.118Z,21.17
2018-12-12T10:50:30.233Z,27.60
2018-12-12T10:52:59.309Z,33.33
2018-12-12T10:55:28.397Z,37.70
2018-12-12T10:57:57.530Z,38.37
2018-12-12T11:00:26.661Z,45.80
2018-12-12T11:04:00.770Z,25.30
2018-12-12T11:06:29.878Z,22.63
2018-12-12T11:08:58.966Z,27.83
2018-12-12T11:11:28.068Z,26.83
2018-12-12T11:13:57.142Z,23.07
2018-12-12T11:16:26.265Z,21.53
2018-12-12T11:18:55.381Z,21.30
2018-12-12T11:21:24.498Z,22.63
2018-12-12T11:23:53.606Z,20.00
2018-12-12T11:26:22.994Z,19.60
2018-12-12T11:28:52.081Z,23.70
2018-12-12T11:31:21.184Z,27.77
2018-12-12T11:33:50.674Z,23.20
2018-12-12T11:36:20.025Z,21.97
2018-12-12T11:38:49.114Z,39.87
2018-12-12T11:41:18.241Z,37.77
2018-12-12T11:43:47.353Z,34.20
2018-12-12T11:46:16.445Z,33.50
2018-12-12T11:48:45.557Z,29.63
2018-12-12T11:51:14.644Z,32.20
2018-12-12T11:53:43.774Z,29.90
2018-12-12T11:56:12.876Z,35.80
2018-12-12T11:58:41.967Z,60.03
2018-12-12T12:01:11.336Z,48.27
2018-12-12T12:03:40.466Z,27.97
2018-12-12T12:06:09.564Z,35.63
2018-12-12T12:08:38.681Z,30.90
2018-12-12T12:11:07.793Z,30.23
2018-12-12T12:13:36.917Z,26.33
2018-12-12T12:16:06.020Z,32.50
2018-12-12T12:18:35.142Z,36.97
2018-12-12T12:21:04.233Z,42.63
2018-12-12T12:23:33.337Z,46.47
2018-12-12T12:26:02.445Z,53.13
2018-12-12T12:28:31.576Z,51.37
2018-12-12T12:31:00.690Z,43.87
2018-12-12T12:33:29.800Z,39.70
2018-12-12T12:35:58.938Z,39.37
2018-12-12T12:38:28.054Z,34.70
2018-12-12T12:40:57.176Z,39.97
2018-12-12T12:43:26.297Z,34.70
2018-12-12T12:45:55.401Z,41.80
2018-12-12T12:48:24.485Z,49.00
2018-12-12T12:50:53.597Z,43.70
2018-12-12T12:53:22.697Z,52.13
2018-12-12T12:55:52.540Z,35.73
2018-12-12T12:58:21.752Z,24.67
2018-12-12T13:00:50.856Z,45.20
2018-12-12T13:03:19.936Z,40.43
2018-12-12T13:05:49.045Z,36.13
2018-12-12T13:08:18.133Z,25.47
2018-12-12T13:10:47.251Z,28.10
2018-12-12T13:13:16.789Z,27.23
2018-12-12T13:15:46.257Z,31.77
2018-12-12T13:18:15.341Z,34.20
2018-12-12T13:20:44.432Z,36.30
2018-12-12T13:23:13.540Z,44.23
2018-12-12T13:25:42.677Z,43.77
2018-12-12T13:28:11.760Z,44.50
2018-12-12T13:30:40.880Z,40.20
2018-12-12T13:33:09.968Z,37.40
2018-12-12T13:35:39.093Z,21.73
2018-12-12T13:38:08.204Z,27.23
2018-12-12T13:40:37.349Z,27.67
2018-12-12T13:43:06.476Z,28.37
2018-12-12T13:45:35.579Z,33.50
2018-12-12T13:48:04.756Z,44.40
2018-12-12T13:50:33.894Z,73.27
2018-12-12T13:53:03.549Z,60.03
2018-12-12T13:55:32.636Z,48.23
2018-12-12T13:58:01.743Z,49.23
2018-12-12T14:00:30.867Z,44.07
2018-12-12T14:02:59.989Z,50.40
2018-12-12T14:05:29.108Z,56.93
2018-12-12T14:07:58.241Z,44.43
2018-12-12T14:10:27.353Z,42.30
2018-12-12T14:12:56.501Z,63.27
2018-12-12T14:15:25.625Z,63.00
2018-12-12T14:17:54.741Z,74.03
2018-12-12T14:20:54.662Z,100.53
2018-12-12T14:23:23.752Z,58.30
2018-12-12T14:25:52.903Z,75.03
2018-12-12T14:28:22.013Z,83.47
2018-12-12T14:30:51.137Z,85.27
2018-12-12T14:33:20.292Z,86.53
2018-12-12T14:35:49.385Z,80.93
2018-12-12T14:38:18.509Z,81.50
2018-12-12T14:40:47.622Z,86.33
2018-12-12T14:43:16.756Z,89.53
2018-12-12T14:45:45.874Z,78.37
2018-12-12T14:48:14.984Z,85.03
2018-12-12T14:50:44.073Z,86.07
2018-12-12T14:53:13.189Z,75.73
2018-12-12T14:55:42.329Z,61.80
2018-12-12T14:58:11.434Z,58.63
2018-12-12T15:00:40.765Z,57.80
2018-12-12T15:03:09.954Z,53.63
2018-12-12T15:05:39.213Z,57.57
2018-12-12T15:08:08.365Z,62.03
2018-12-12T15:10:37.500Z,73.60
2018-12-12T15:13:06.807Z,75.77
2018-12-12T15:15:35.916Z,84.00
2018-12-12T15:18:05.078Z,81.20
2018-12-12T15:20:34.195Z,69.57
2018-12-12T15:23:03.301Z,73.77
2018-12-12T15:25:32.375Z,74.33
2018-12-12T15:28:01.496Z,79.40
2018-12-12T15:30:30.617Z,107.23
2018-12-12T15:32:59.758Z,212.90
2018-12-12T15:35:28.862Z,116.10
2018-12-12T15:37:57.981Z,67.33
2018-12-12T15:40:27.102Z,62.30
2018-12-12T15:42:56.209Z,83.97
2018-12-12T15:45:25.293Z,87.77
2018-12-12T15:47:54.459Z,96.67
2018-12-12T15:50:23.609Z,95.07
2018-12-12T15:52:52.757Z,68.47
2018-12-12T15:55:21.865Z,50.13
2018-12-12T15:57:51.031Z,37.97
2018-12-12T16:00:20.403Z,49.10
2018-12-12T16:02:49.822Z,57.37
2018-12-12T16:05:18.961Z,44.87
2018-12-12T16:07:48.134Z,48.93
2018-12-12T16:10:17.237Z,49.47
2018-12-12T16:12:46.492Z,47.83
2018-12-12T16:15:15.573Z,48.83
2018-12-12T16:17:44.764Z,53.33
2018-12-12T16:20:13.898Z,69.63
2018-12-12T16:22:42.982Z,58.67
2018-12-12T16:25:12.059Z,68.77
2018-12-12T16:27:41.174Z,76.70
2018-12-12T16:30:10.331Z,72.73
2018-12-12T16:32:39.517Z,79.73
2018-12-12T16:35:08.608Z,81.03
2018-12-12T16:37:37.758Z,74.37
2018-12-12T16:40:07.176Z,71.33
2018-12-12T16:42:36.365Z,78.03
2018-12-12T16:45:05.743Z,77.30
2018-12-12T16:47:34.855Z,76.23
2018-12-12T16:50:04.006Z,92.20
2018-12-12T16:52:33.122Z,65.57
2018-12-12T16:55:02.215Z,52.77
2018-12-12T16:57:31.341Z,61.77
2018-12-12T17:00:00.450Z,40.87
2018-12-12T17:02:29.562Z,43.53
2018-12-12T17:05:02.228Z,65.23
2018-12-12T17:07:29.764Z,83.50
2018-12-12T17:09:58.861Z,79.87
2018-12-12T17:12:28.112Z,76.60
2018-12-12T17:14:57.213Z,86.47
2018-12-12T17:17:26.340Z,77.40
2018-12-12T17:19:55.425Z,47.03
2018-12-12T17:22:24.501Z,45.03
2018-12-12T17:24:53.622Z,42.97
2018-12-12T17:27:22.723Z,43.50
2018-12-12T17:29:51.825Z,47.97
2018-12-12T17:32:20.963Z,44.57
2018-12-12T17:34:50.063Z,41.07
2018-12-12T17:37:19.182Z,63.43
2018-12-12T17:39:48.288Z,32.47
2018-12-12T17:42:17.454Z,38.67
2018-12-12T17:44:46.571Z,31.70
2018-12-12T17:47:15.691Z,24.80
2018-12-12T17:49:45.355Z,28.63
2018-12-12T17:52:14.521Z,40.60
2018-12-12T17:54:43.693Z,44.17
2018-12-12T17:57:12.848Z,56.20
2018-12-12T17:59:41.973Z,56.63
2018-12-12T18:02:15.157Z,66.70
2018-12-12T18:04:44.274Z,65.00
2018-12-12T18:07:13.560Z,38.23
2018-12-12T18:09:42.808Z,46.57
2018-12-12T18:12:11.905Z,41.77
2018-12-12T18:14:42.036Z,44.17
2018-12-12T18:17:12.015Z,34.03
2018-12-12T18:19:41.138Z,29.43
2018-12-12T18:22:10.281Z,31.37
2018-12-12T18:24:39.410Z,27.73
2018-12-12T18:27:08.541Z,32.83
2018-12-12T18:29:37.690Z,31.20
2018-12-12T18:32:06.794Z,32.30
2018-12-12T18:34:36.062Z,36.30
2018-12-12T18:37:05.160Z,40.20
2018-12-12T18:39:34.301Z,40.83
2018-12-12T18:42:03.431Z,34.47
2018-12-12T18:44:32.640Z,40.47
2018-12-12T18:47:03.046Z,41.83
2018-12-12T18:49:32.170Z,33.53
2018-12-12T18:52:01.275Z,25.37
2018-12-12T18:54:30.493Z,21.60
2018-12-12T18:56:59.641Z,28.40
2018-12-12T18:59:28.810Z,22.80
2018-12-12T19:01:57.938Z,39.67
2018-12-12T19:04:27.133Z,37.70
2018-12-12T19:06:56.273Z,46.83
2018-12-12T19:09:25.408Z,33.00
2018-12-12T19:11:54.497Z,21.67
2018-12-12T19:14:23.750Z,28.30
2018-12-12T19:16:52.847Z,29.93
2018-12-12T19:19:21.948Z,23.83
2018-12-12T19:21:51.085Z,24.03
2018-12-12T19:24:20.241Z,24.23
2018-12-12T19:26:49.322Z,23.63
2018-12-12T19:29:18.440Z,24.57
2018-12-12T19:31:47.544Z,25.17
2018-12-12T19:34:16.643Z,24.50
2018-12-12T19:36:45.727Z,19.70
2018-12-12T19:39:14.829Z,18.13
2018-12-12T19:41:43.919Z,26.20
2018-12-12T19:44:13.009Z,24.40
2018-12-12T19:46:42.110Z,25.27
2018-12-12T19:49:11.217Z,20.60
2018-12-12T19:51:40.319Z,22.50
2018-12-12T19:54:09.408Z,22.83
2018-12-12T19:56:38.493Z,26.70
2018-12-12T19:59:07.631Z,26.50
2018-12-12T20:01:36.745Z,25.13
2018-12-12T20:04:05.875Z,26.17
2018-12-12T20:06:34.952Z,28.13
2018-12-12T20:09:04.992Z,29.50
2018-12-12T20:11:34.113Z,22.60
2018-12-12T20:14:03.437Z,22.00
2018-12-12T20:16:32.565Z,22.27
2018-12-12T20:19:01.691Z,21.00
2018-12-12T20:21:30.800Z,18.00
2018-12-12T20:23:59.893Z,22.13
2018-12-12T20:26:28.985Z,16.87
2018-12-12T20:28:58.124Z,18.60
2018-12-12T20:31:27.227Z,20.40
2018-12-12T20:33:56.357Z,23.93
2018-12-12T20:36:25.454Z,20.90
2018-12-12T20:38:54.587Z,24.00
2018-12-12T20:41:23.689Z,28.80
2018-12-12T20:43:52.788Z,29.77
2018-12-12T20:46:21.915Z,15.87
2018-12-12T20:48:51.013Z,23.57
2018-12-12T20:51:20.153Z,24.97
2018-12-12T20:53:49.254Z,31.53
2018-12-12T20:56:18.389Z,54.60
2018-12-12T20:58:47.510Z,36.80
2018-12-12T21:01:16.665Z,18.20
2018-12-12T21:03:45.760Z,14.23
2018-12-12T21:06:14.875Z,16.47
2018-12-12T21:08:43.979Z,16.13
2018-12-12T21:11:13.080Z,19.63
2018-12-12T21:13:42.176Z,22.03
2018-12-12T21:16:11.416Z,20.20
2018-12-12T21:18:40.544Z,21.10
2018-12-12T21:21:09.682Z,20.83
2018-12-12T21:23:38.881Z,16.40
2018-12-12T21:26:08.049Z,12.23
2018-12-12T21:28:37.147Z,13.70
2018-12-12T21:31:06.267Z,16.23
2018-12-12T21:33:35.354Z,24.63
2018-12-12T21:36:04.495Z,28.70
2018-12-12T21:38:33.609Z,25.07
2018-12-12T21:41:02.715Z,19.23
2018-12-12T21:43:31.804Z,15.30
2018-12-12T21:46:01.346Z,14.40
2018-12-12T21:48:30.655Z,17.43
2018-12-12T21:50:59.768Z,16.83
2018-12-12T21:53:28.835Z,15.53
2018-12-12T21:55:57.952Z,21.23
2018-12-12T21:58:27.050Z,19.80
2018-12-12T22:00:56.165Z,13.70
2018-12-12T22:03:25.290Z,16.23
2018-12-12T22:05:54.437Z,12.00
2018-12-12T22:08:23.544Z,12.53
2018-12-12T22:10:52.643Z,13.70
2018-12-12T22:13:21.720Z,11.70
2018-12-12T22:15:50.824Z,12.03
2018-12-12T22:18:19.911Z,12.43
2018-12-12T22:20:49.024Z,10.93
2018-12-12T22:23:18.118Z,14.03
2018-12-12T22:25:47.215Z,11.13
2018-12-12T22:28:16.329Z,7.70
2018-12-12T22:30:45.436Z,10.93
2018-12-12T22:33:14.862Z,8.10
2018-12-12T22:35:43.974Z,8.33
2018-12-12T22:38:13.081Z,8.43
2018-12-12T22:40:42.212Z,13.70
2018-12-12T22:43:11.320Z,13.60
2018-12-12T22:45:40.445Z,11.80
2018-12-12T22:48:09.593Z,7.00
2018-12-12T22:50:38.677Z,7.40
2018-12-12T22:53:07.765Z,9.50
2018-12-12T22:55:36.882Z,11.30
2018-12-12T22:58:05.966Z,11.27
2018-12-12T23:00:35.864Z,9.63
2018-12-12T23:03:04.955Z,10.60
2018-12-12T23:05:34.057Z,11.23
2018-12-12T23:08:03.153Z,10.40
2018-12-12T23:10:32.274Z,10.47
2018-12-12T23:13:01.381Z,10.50
2018-12-12T23:15:30.460Z,12.70
2018-12-12T23:17:59.589Z,18.70
2018-12-12T23:20:28.678Z,8.67
2018-12-12T23:22:57.782Z,10.13
2018-12-12T23:25:26.890Z,10.20
2018-12-12T23:27:55.960Z,10.13
2018-12-12T23:30:25.044Z,11.27
2018-12-12T23:32:54.131Z,10.77
2018-12-12T23:35:23.227Z,7.77
2018-12-12T23:37:52.342Z,15.50
2018-12-12T23:40:21.449Z,12.33
2018-12-12T23:42:50.552Z,12.90
2018-12-12T23:45:19.646Z,10.00
2018-12-12T23:47:48.740Z,9.43
2018-12-12T23:50:17.839Z,14.20
2018-12-12T23:52:46.931Z,15.50
2018-12-12T23:55:15.977Z,13.90
2018-12-12T23:57:45.074Z,11.67
